CheckWX is a tool to help pilots better visualize weather data.  It is not intended as a substitute for an official pre-flight weather briefing.

16:30:32 UTC

KSGJ TAF
Northeast Florida Regional Airport
St Augustine, Florida, USA
KSGJ 191120Z 1912/2012 27007KT P6SM FEW250 FM191500 27013G20KT P6SM FEW080 FEW120 FM192200 27010KT P6SM FEW060 FM200300 25004KT P6SM SKC

Nov-19@
12:00 UTC

Nov-19 @ 12:00 UTC

Nov-19@
15:00 UTC

Nov-19 @ 15:00 UTC

KSGJ 191120Z 1912/2012 27007KT P6SM FEW250

Expired

Wind
  • 270° at 7 KTS
Cloud Levels
  • Few at 25,000' AGL

Nov-19@
15:00 UTC

Nov-19 @ 15:00 UTC

Nov-19@
22:00 UTC

Nov-19 @ 22:00 UTC

FM191500 27013G20KT P6SM FEW080 FEW120

From

From Standard forecast or significant change

Wind
  • 270° at 13 KTS
  • {Gusting to 20 KTS
Cloud Levels
  • Few at 8,000' AGL
  • Few at 12,000' AGL

Nov-19@
22:00 UTC

Nov-19 @ 22:00 UTC

Nov-20@
03:00 UTC

Nov-20 @ 03:00 UTC

FM192200 27010KT P6SM FEW060

From

From Standard forecast or significant change

Wind
  • 270° at 10 KTS
Cloud Levels
  • Few at 6,000' AGL

Nov-20@
03:00 UTC

Nov-20 @ 03:00 UTC

Nov-20@
12:00 UTC

Nov-20 @ 12:00 UTC

FM200300 25004KT P6SM SKC

From

From Standard forecast or significant change

Wind
  • 250° at 4 KTS
Cloud Levels
  • Clear skies